createdAt,value
2023-02-28T00:03:51.722Z,3.07
2023-02-28T00:07:53.700Z,2.80
2023-02-28T00:11:55.603Z,3.63
2023-02-28T00:16:11.845Z,3.20
2023-02-28T00:20:13.901Z,3.47
2023-02-28T00:24:15.688Z,3.67
2023-02-28T00:28:17.469Z,3.47
2023-02-28T00:32:20.012Z,3.47
2023-02-28T00:36:21.889Z,3.57
2023-02-28T00:40:23.690Z,3.53
2023-02-28T00:44:25.667Z,3.53
2023-02-28T00:48:30.178Z,3.57
2023-02-28T00:52:32.079Z,4.00
2023-02-28T00:56:33.858Z,3.87
2023-02-28T01:00:35.993Z,4.13
2023-02-28T01:04:38.047Z,3.77
2023-02-28T01:08:39.914Z,4.20
2023-02-28T01:12:41.732Z,4.17
2023-02-28T01:16:43.650Z,3.57
2023-02-28T01:20:45.889Z,4.27
2023-02-28T01:24:48.442Z,4.20
2023-02-28T01:28:51.422Z,3.90
2023-02-28T01:32:54.564Z,3.90
2023-02-28T01:36:56.329Z,3.90
2023-02-28T01:40:58.300Z,3.90
2023-02-28T01:45:26.679Z,4.30
2023-02-28T01:49:28.494Z,4.07
2023-02-28T01:53:50.829Z,4.17
2023-02-28T01:57:54.661Z,4.37
2023-02-28T02:01:56.617Z,3.83
2023-02-28T02:05:58.795Z,4.00
2023-02-28T02:10:41.027Z,3.67
2023-02-28T02:15:20.079Z,4.10
2023-02-28T02:19:47.459Z,4.10
2023-02-28T02:24:15.099Z,3.93
2023-02-28T02:28:44.350Z,4.53
2023-02-28T02:33:06.410Z,4.20
2023-02-28T02:37:32.267Z,3.87
2023-02-28T02:41:50.675Z,3.87
2023-02-28T02:45:56.536Z,4.40
2023-02-28T02:50:00.621Z,4.23
2023-02-28T02:54:09.978Z,4.50
2023-02-28T02:58:25.165Z,4.30
2023-02-28T03:02:27.304Z,4.57
2023-02-28T03:06:35.514Z,3.93
2023-02-28T03:10:51.480Z,4.77
2023-02-28T03:15:09.546Z,4.50
2023-02-28T03:19:23.479Z,4.20
2023-02-28T03:23:45.632Z,4.00
2023-02-28T03:28:08.986Z,4.70
2023-02-28T03:32:36.796Z,4.77
2023-02-28T03:36:46.402Z,4.67
2023-02-28T03:41:02.396Z,4.70
2023-02-28T03:45:10.036Z,5.00
2023-02-28T03:49:25.364Z,4.10
2023-02-28T03:53:37.355Z,4.83
2023-02-28T03:58:14.290Z,5.20
2023-02-28T04:02:21.370Z,5.57
2023-02-28T04:06:23.867Z,4.80
2023-02-28T04:10:25.659Z,5.43
2023-02-28T04:14:27.555Z,5.50
2023-02-28T04:18:29.334Z,6.00
2023-02-28T04:22:31.065Z,5.70
2023-02-28T04:26:37.436Z,5.80
2023-02-28T04:30:40.221Z,6.20
2023-02-28T04:34:41.996Z,5.23
2023-02-28T04:38:44.097Z,7.47
2023-02-28T04:42:45.802Z,7.27
2023-02-28T04:46:48.911Z,7.33
2023-02-28T04:50:50.644Z,7.93
2023-02-28T04:54:52.575Z,7.50
2023-02-28T04:58:55.553Z,7.77
2023-02-28T05:02:57.272Z,7.53
2023-02-28T05:06:59.032Z,7.23
2023-02-28T05:11:04.336Z,8.10
2023-02-28T05:15:07.084Z,8.30
2023-02-28T05:19:08.911Z,8.17
2023-02-28T05:23:13.144Z,9.10
2023-02-28T05:27:14.974Z,7.90
2023-02-28T05:31:16.932Z,8.23
2023-02-28T05:35:18.969Z,8.67
2023-02-28T05:39:20.831Z,7.83
2023-02-28T05:43:22.958Z,8.37
2023-02-28T05:47:24.892Z,8.40
2023-02-28T05:51:27.012Z,8.77
2023-02-28T05:55:29.471Z,8.83
2023-02-28T05:59:31.429Z,8.60
2023-02-28T06:03:33.209Z,8.23
2023-02-28T06:07:35.080Z,9.17
2023-02-28T06:11:36.930Z,7.80
2023-02-28T06:15:38.846Z,9.10
2023-02-28T06:19:42.263Z,8.53
2023-02-28T06:23:45.467Z,8.70
2023-02-28T06:27:47.273Z,9.30
2023-02-28T06:31:49.746Z,8.30
2023-02-28T06:35:52.132Z,7.50
2023-02-28T06:39:57.276Z,6.50
2023-02-28T06:43:59.003Z,7.43
2023-02-28T06:48:01.246Z,6.67
2023-02-28T06:52:03.132Z,7.17
2023-02-28T06:56:09.804Z,6.17
2023-02-28T07:00:12.980Z,6.57
2023-02-28T07:04:14.833Z,7.20
2023-02-28T07:08:16.607Z,8.43
2023-02-28T07:12:18.495Z,7.07
2023-02-28T07:16:20.740Z,7.90
2023-02-28T07:20:24.869Z,6.93
2023-02-28T07:24:29.314Z,8.00
2023-02-28T07:28:31.166Z,7.87
2023-02-28T07:32:33.165Z,7.40
2023-02-28T07:36:35.359Z,7.70
2023-02-28T07:40:37.363Z,7.20
2023-02-28T07:44:41.636Z,7.80
2023-02-28T07:48:44.229Z,7.47
2023-02-28T07:52:46.143Z,8.37
2023-02-28T07:56:47.970Z,8.73
2023-02-28T08:00:49.824Z,8.93
2023-02-28T08:04:51.635Z,11.97
2023-02-28T08:08:54.027Z,9.03
2023-02-28T08:12:55.805Z,9.13
2023-02-28T08:16:57.720Z,8.70
2023-02-28T08:21:00.249Z,8.87
2023-02-28T08:25:02.176Z,8.67
2023-02-28T08:29:04.024Z,9.00
2023-02-28T08:33:06.069Z,8.20
2023-02-28T08:37:08.155Z,8.97
2023-02-28T08:41:13.377Z,8.50
2023-02-28T08:45:15.773Z,8.57
2023-02-28T08:49:17.617Z,8.63
2023-02-28T08:53:19.480Z,8.80
2023-02-28T08:57:21.335Z,8.77
2023-02-28T09:01:28.993Z,7.97
2023-02-28T09:05:31.357Z,8.20
2023-02-28T09:09:33.120Z,7.80
2023-02-28T09:13:35.050Z,8.03
2023-02-28T09:17:36.895Z,7.07
2023-02-28T09:21:38.702Z,7.50
2023-02-28T09:25:50.142Z,7.17
2023-02-28T09:29:52.070Z,7.90
2023-02-28T09:33:57.641Z,7.20
2023-02-28T09:37:59.531Z,6.57
2023-02-28T09:42:01.675Z,6.43
2023-02-28T09:46:33.217Z,6.30
2023-02-28T09:50:42.878Z,6.40
2023-02-28T09:54:44.644Z,7.20
2023-02-28T09:59:16.243Z,6.60
2023-02-28T10:03:30.131Z,6.80
2023-02-28T10:08:13.156Z,6.77
2023-02-28T10:12:14.964Z,6.13
2023-02-28T10:16:22.492Z,5.77
2023-02-28T10:20:30.726Z,6.00
2023-02-28T10:24:51.279Z,6.73
2023-02-28T10:28:53.090Z,7.00
2023-02-28T10:32:55.548Z,6.97
2023-02-28T10:36:57.500Z,7.03
2023-02-28T10:41:15.074Z,8.03
2023-02-28T10:45:17.819Z,7.77
2023-02-28T10:49:30.180Z,7.97
2023-02-28T10:53:57.695Z,8.50
2023-02-28T10:58:00.875Z,7.60
2023-02-28T11:02:03.991Z,7.70
2023-02-28T11:06:18.110Z,8.17
2023-02-28T11:10:26.436Z,8.30
2023-02-28T11:14:48.772Z,8.13
2023-02-28T11:18:55.555Z,7.73
2023-02-28T11:22:58.282Z,8.30
2023-02-28T11:27:00.551Z,8.33
2023-02-28T11:31:12.452Z,8.23
2023-02-28T11:35:35.835Z,7.97
2023-02-28T11:39:41.283Z,7.77
2023-02-28T11:43:58.301Z,8.67
2023-02-28T11:48:09.581Z,6.93
2023-02-28T11:52:52.483Z,7.57
2023-02-28T11:57:33.355Z,7.50
2023-02-28T12:02:08.139Z,7.27
2023-02-28T12:06:20.449Z,7.33
2023-02-28T12:10:37.720Z,6.90
2023-02-28T12:14:58.138Z,7.40
2023-02-28T12:19:08.413Z,6.87
2023-02-28T12:23:50.056Z,7.10
2023-02-28T12:27:54.219Z,7.90
2023-02-28T12:32:17.947Z,7.50
2023-02-28T12:36:23.144Z,8.17
2023-02-28T12:40:43.086Z,8.10
2023-02-28T12:45:03.350Z,7.17
2023-02-28T12:49:30.361Z,8.20
2023-02-28T12:53:56.079Z,8.40
2023-02-28T12:58:24.420Z,8.00
2023-02-28T13:03:16.645Z,8.83
2023-02-28T13:07:42.205Z,8.47
2023-02-28T13:11:47.166Z,8.57
2023-02-28T13:16:08.891Z,9.23
2023-02-28T13:20:51.648Z,9.03
2023-02-28T13:24:55.922Z,8.87
2023-02-28T13:29:18.531Z,8.50
2023-02-28T13:33:36.391Z,9.00
2023-02-28T13:37:44.122Z,9.10
2023-02-28T13:41:46.440Z,8.80
2023-02-28T13:46:18.594Z,8.83
2023-02-28T13:50:41.214Z,8.73
2023-02-28T13:55:31.017Z,9.30
2023-02-28T13:59:57.708Z,9.50
2023-02-28T14:04:41.091Z,9.60
2023-02-28T14:09:20.257Z,9.00
2023-02-28T14:13:50.146Z,9.37
2023-02-28T14:18:00.041Z,8.60
2023-02-28T14:22:58.371Z,7.80
2023-02-28T14:27:10.191Z,8.53
2023-02-28T14:31:20.862Z,8.60
2023-02-28T14:36:06.504Z,8.47
2023-02-28T14:40:34.369Z,10.67
2023-02-28T14:44:38.333Z,9.40
2023-02-28T14:48:40.658Z,9.00
2023-02-28T14:52:44.216Z,9.67
2023-02-28T14:56:50.422Z,9.90
2023-02-28T15:01:06.816Z,9.80
2023-02-28T15:05:31.171Z,9.27
2023-02-28T15:09:34.519Z,9.37
2023-02-28T15:13:48.570Z,9.47
2023-02-28T15:17:58.573Z,9.43
2023-02-28T15:22:06.787Z,9.53
2023-02-28T15:26:11.655Z,10.27
2023-02-28T15:30:20.222Z,9.63
2023-02-28T15:34:44.094Z,10.77
2023-02-28T15:38:51.921Z,9.70
2023-02-28T15:43:01.542Z,9.20
2023-02-28T15:47:30.578Z,8.77
2023-02-28T15:51:39.297Z,8.57
2023-02-28T15:55:42.578Z,9.47
2023-02-28T16:00:01.830Z,9.60
2023-02-28T16:04:18.432Z,9.20
2023-02-28T16:08:20.382Z,9.37
2023-02-28T16:12:26.236Z,8.13
2023-02-28T16:16:28.072Z,8.57
2023-02-28T16:20:31.486Z,9.60
2023-02-28T16:24:33.322Z,8.40
2023-02-28T16:28:37.713Z,8.60
2023-02-28T16:32:59.871Z,8.17
2023-02-28T16:37:01.788Z,8.40
2023-02-28T16:41:03.832Z,9.37
2023-02-28T16:45:06.563Z,8.93
2023-02-28T16:49:13.097Z,8.50
2023-02-28T16:53:15.085Z,8.40
2023-02-28T16:57:22.534Z,8.80
2023-02-28T17:01:28.876Z,8.80
2023-02-28T17:05:38.909Z,8.60
2023-02-28T17:09:45.620Z,8.17
2023-02-28T17:13:48.619Z,8.40
2023-02-28T17:17:53.726Z,8.33
2023-02-28T17:22:21.690Z,9.73
2023-02-28T17:26:26.939Z,7.97
2023-02-28T17:30:48.512Z,8.73
2023-02-28T17:35:02.844Z,8.70
2023-02-28T17:39:11.128Z,9.13
2023-02-28T17:43:13.027Z,10.17
2023-02-28T17:47:17.106Z,10.27
2023-02-28T17:51:29.736Z,10.97
2023-02-28T17:55:32.782Z,11.13
2023-02-28T17:59:41.377Z,12.07
2023-02-28T18:03:44.519Z,13.10
2023-02-28T18:07:49.427Z,13.43
2023-02-28T18:11:52.775Z,13.73
2023-02-28T18:15:57.962Z,14.50
2023-02-28T18:20:00.518Z,14.70
2023-02-28T18:24:02.531Z,14.93
2023-02-28T18:28:05.817Z,14.53
2023-02-28T18:32:07.838Z,15.17
2023-02-28T18:36:10.488Z,14.77
2023-02-28T18:40:19.063Z,14.87
2023-02-28T18:44:30.146Z,14.00
2023-02-28T18:48:32.780Z,12.80
2023-02-28T18:52:34.774Z,14.30
2023-02-28T18:56:41.134Z,13.80
2023-02-28T19:00:43.988Z,13.33
2023-02-28T19:04:47.096Z,14.80
2023-02-28T19:08:53.606Z,14.97
2023-02-28T19:12:55.769Z,14.77
2023-02-28T19:16:57.764Z,13.77
2023-02-28T19:21:02.089Z,14.53
2023-02-28T19:25:07.807Z,13.67
2023-02-28T19:29:09.730Z,13.13
2023-02-28T19:33:11.672Z,15.10
2023-02-28T19:37:13.669Z,14.10
2023-02-28T19:41:16.190Z,13.70
2023-02-28T19:45:18.947Z,14.87
2023-02-28T19:49:22.105Z,13.40
2023-02-28T21:00:20.687Z,20.57
2023-02-28T21:04:22.761Z,20.87
2023-02-28T21:08:24.852Z,21.17
2023-02-28T21:12:27.003Z,20.37
2023-02-28T21:16:37.800Z,20.33
2023-02-28T21:20:42.406Z,20.80
2023-02-28T21:24:44.318Z,19.40
2023-02-28T21:28:54.789Z,17.70
2023-02-28T21:32:57.920Z,15.83
2023-02-28T21:36:59.741Z,16.00
2023-02-28T21:41:13.178Z,16.13
2023-02-28T21:45:15.058Z,16.60
2023-02-28T21:49:16.900Z,16.00
2023-02-28T21:53:18.653Z,16.47
2023-02-28T21:57:21.042Z,16.40
2023-02-28T22:01:23.103Z,16.27
2023-02-28T22:05:25.199Z,16.23
2023-02-28T22:09:27.222Z,15.77
2023-02-28T22:13:31.351Z,15.27
2023-02-28T22:17:33.640Z,15.80
2023-02-28T22:21:36.345Z,15.47
2023-02-28T22:25:41.196Z,15.83
2023-02-28T22:29:42.939Z,15.70
2023-02-28T22:33:44.987Z,20.33
2023-02-28T22:37:48.361Z,20.50
2023-02-28T22:41:50.211Z,19.40
2023-02-28T22:45:51.954Z,19.73
2023-02-28T22:49:53.836Z,19.53
2023-02-28T22:53:56.225Z,18.40
2023-02-28T22:57:57.980Z,18.67
2023-02-28T23:01:59.824Z,18.27
2023-02-28T23:06:01.751Z,17.07
2023-02-28T23:10:08.735Z,17.33
2023-02-28T23:14:12.813Z,17.53
2023-02-28T23:18:15.561Z,18.97
2023-02-28T23:22:17.344Z,19.53
2023-02-28T23:26:19.209Z,17.37
2023-02-28T23:30:21.225Z,17.13
2023-02-28T23:34:32.369Z,19.43
2023-02-28T23:38:34.117Z,17.90
2023-02-28T23:42:36.393Z,18.77
2023-02-28T23:46:38.219Z,17.97
2023-02-28T23:50:40.086Z,17.40
2023-02-28T23:54:42.219Z,17.53
2023-02-28T23:58:44.762Z,17.17
